Time;durP1;ratioP1;P1;durP2;ratioP2;P2;SDS_P1;SDS_P2;PMS_P1;PMS_P2;Temp;Humidity;BMP_temperature;BMP_pressure;BME280_temperature;BME280_humidity;BME280_pressure;Samples;Min_cycle;Max_cycle;Signal;HPM_P1;HPM_P2
2021/08/17 00:00:09;;;;;;;3.67;2.00;;;;;;;;;;5004259;28;20033;-35
2021/08/17 00:02:34;;;;;;;5.25;2.55;;;;;;;;;;5003590;28;20674;-37
2021/08/17 00:05:00;;;;;;;5.05;2.35;;;;;;;;;;5014013;28;20061;-35
2021/08/17 00:07:26;;;;;;;4.63;2.20;;;;;;;;;;5025312;28;20033;-37
2021/08/17 00:09:52;;;;;;;4.07;2.40;;;;;;;;;;5014271;28;20049;-37
2021/08/17 00:12:17;;;;;;;4.55;2.13;;;;;;;;;;5006901;28;20070;-39
2021/08/17 00:14:42;;;;;;;4.60;2.28;;;;;;;;;;5008652;28;20034;-36
2021/08/17 00:17:09;;;;;;;4.50;2.50;;;;;;;;;;5007308;28;20037;-36
2021/08/17 00:19:38;;;;;;;4.13;2.15;;;;;;;;;;5002585;28;20041;-37
2021/08/17 00:22:04;;;;;;;4.10;2.25;;;;;;;;;;5005219;28;20036;-41
2021/08/17 00:24:29;;;;;;;4.30;2.30;;;;;;;;;;5012422;28;20463;-37
2021/08/17 00:26:54;;;;;;;4.30;2.38;;;;;;;;;;4998375;28;22838;-37
2021/08/17 00:29:20;;;;;;;5.18;2.60;;;;;;;;;;5002757;28;20084;-38
2021/08/17 00:31:45;;;;;;;3.60;1.90;;;;;;;;;;5009653;28;20769;-37
2021/08/17 00:34:10;;;;;;;4.05;2.30;;;;;;;;;;5008282;28;20040;-35
2021/08/17 00:36:36;;;;;;;3.70;2.15;;;;;;;;;;5006483;28;20433;-37
2021/08/17 00:39:01;;;;;;;5.35;2.10;;;;;;;;;;5023380;28;20078;-36
2021/08/17 00:41:27;;;;;;;3.90;2.00;;;;;;;;;;5006559;28;20030;-35
2021/08/17 00:43:53;;;;;;;4.43;2.20;;;;;;;;;;5007184;28;20029;-35
2021/08/17 00:46:21;;;;;;;4.60;2.40;;;;;;;;;;5007993;28;20075;-34
2021/08/17 00:48:47;;;;;;;6.53;3.58;;;;;;;;;;5006874;28;20700;-35
2021/08/17 00:51:12;;;;;;;4.15;2.40;;;;;;;;;;5004986;28;20080;-38
2021/08/17 00:53:37;;;;;;;3.00;1.90;;;;;;;;;;5006758;28;20029;-35
2021/08/17 00:56:04;;;;;;;3.88;2.40;;;;;;;;;;5026770;28;20029;-35
2021/08/17 00:58:30;;;;;;;4.40;2.35;;;;;;;;;;5024314;28;20116;-37
2021/08/17 01:00:57;;;;;;;4.65;2.45;;;;;;;;;;5006024;28;20129;-35
2021/08/17 01:03:22;;;;;;;4.07;2.00;;;;;;;;;;5006293;28;20674;-39
2021/08/17 01:05:49;;;;;;;3.75;2.15;;;;;;;;;;5006352;28;20038;-42
2021/08/17 01:08:15;;;;;;;3.83;2.38;;;;;;;;;;5007020;28;20121;-37
2021/08/17 01:10:41;;;;;;;4.30;2.20;;;;;;;;;;5006043;28;20113;-38
2021/08/17 01:13:07;;;;;;;4.60;2.33;;;;;;;;;;5006532;28;20665;-37
2021/08/17 01:15:32;;;;;;;4.10;2.13;;;;;;;;;;5006921;28;20026;-38
2021/08/17 01:17:58;;;;;;;5.25;2.90;;;;;;;;;;5006860;28;20060;-35
2021/08/17 01:20:23;;;;;;;5.15;2.78;;;;;;;;;;5018732;28;20030;-35
2021/08/17 01:22:49;;;;;;;3.90;2.10;;;;;;;;;;5012485;28;20488;-36
2021/08/17 01:25:14;;;;;;;4.05;2.17;;;;;;;;;;5014276;28;20519;-37
2021/08/17 01:27:41;;;;;;;4.10;2.28;;;;;;;;;;5014607;28;20040;-37
2021/08/17 01:30:09;;;;;;;4.28;2.17;;;;;;;;;;5006421;28;20420;-35
2021/08/17 01:32:35;;;;;;;4.43;2.20;;;;;;;;;;5005658;28;20034;-34
2021/08/17 01:35:00;;;;;;;4.10;2.30;;;;;;;;;;5006235;28;20037;-35
2021/08/17 01:37:26;;;;;;;4.53;2.28;;;;;;;;;;5005465;28;20184;-37
2021/08/17 01:40:03;;;;;;;3.92;2.20;;;;;;;;;;5006325;28;20491;-37
2021/08/17 01:42:30;;;;;;;4.13;2.35;;;;;;;;;;5005777;28;20446;-35
2021/08/17 01:44:56;;;;;;;4.47;2.42;;;;;;;;;;5007555;28;20057;-36
2021/08/17 01:47:22;;;;;;;3.92;2.00;;;;;;;;;;5023547;28;20095;-35
2021/08/17 01:49:47;;;;;;;4.18;2.30;;;;;;;;;;5016460;28;20033;-35
2021/08/17 01:52:13;;;;;;;4.60;2.10;;;;;;;;;;5004369;28;20042;-35
2021/08/17 01:54:38;;;;;;;4.63;2.70;;;;;;;;;;5005165;28;20036;-35
2021/08/17 01:57:03;;;;;;;4.50;2.35;;;;;;;;;;5005787;28;20429;-36
2021/08/17 01:59:32;;;;;;;4.88;2.35;;;;;;;;;;5006059;28;20030;-39
2021/08/17 02:01:57;;;;;;;4.15;2.30;;;;;;;;;;5005641;28;20030;-37
2021/08/17 02:04:23;;;;;;;3.97;2.25;;;;;;;;;;5005778;28;20026;-37
2021/08/17 02:06:48;;;;;;;3.83;2.15;;;;;;;;;;5005162;28;20117;-35
2021/08/17 02:09:14;;;;;;;5.65;2.22;;;;;;;;;;5007206;28;20040;-35
2021/08/17 02:11:39;;;;;;;6.15;2.30;;;;;;;;;;5015103;28;20112;-36
2021/08/17 02:14:04;;;;;;;4.88;2.30;;;;;;;;;;5005831;28;20026;-37
2021/08/17 02:16:31;;;;;;;4.65;2.50;;;;;;;;;;5006447;28;20628;-35
2021/08/17 02:18:56;;;;;;;4.93;2.70;;;;;;;;;;5005630;28;20040;-36
2021/08/17 02:21:21;;;;;;;4.68;2.40;;;;;;;;;;5004633;28;20022;-39
2021/08/17 02:23:47;;;;;;;4.18;1.92;;;;;;;;;;5005317;28;20926;-38
2021/08/17 02:26:12;;;;;;;4.55;2.28;;;;;;;;;;5005140;28;20446;-39
2021/08/17 02:28:37;;;;;;;5.38;2.58;;;;;;;;;;5004438;28;20724;-37
2021/08/17 02:31:03;;;;;;;4.47;2.40;;;;;;;;;;5005250;28;20055;-40
2021/08/17 02:33:28;;;;;;;4.72;2.50;;;;;;;;;;5003945;28;20018;-41
2021/08/17 02:35:53;;;;;;;5.85;3.60;;;;;;;;;;5016223;28;20017;-39
2021/08/17 02:38:19;;;;;;;5.00;2.58;;;;;;;;;;5015321;28;20032;-37
2021/08/17 02:40:44;;;;;;;4.40;2.25;;;;;;;;;;5004411;28;20037;-38
2021/08/17 02:43:10;;;;;;;5.25;2.50;;;;;;;;;;5004364;28;20110;-37
2021/08/17 02:45:36;;;;;;;4.07;2.30;;;;;;;;;;5004190;28;20034;-39
2021/08/17 02:48:02;;;;;;;3.90;2.13;;;;;;;;;;5004587;28;20030;-38
2021/08/17 02:50:29;;;;;;;4.57;2.58;;;;;;;;;;5005045;28;20030;-38
2021/08/17 02:52:54;;;;;;;5.18;2.47;;;;;;;;;;5004189;28;20103;-40
2021/08/17 02:55:20;;;;;;;4.25;2.22;;;;;;;;;;5005524;28;20061;-38
2021/08/17 02:57:51;;;;;;;4.35;2.33;;;;;;;;;;5004583;28;20040;-36
2021/08/17 03:00:18;;;;;;;6.22;3.10;;;;;;;;;;5012454;28;20127;-39
2021/08/17 03:02:43;;;;;;;5.07;2.50;;;;;;;;;;5012520;28;20038;-40
2021/08/17 03:05:09;;;;;;;6.45;2.78;;;;;;;;;;5018715;28;20025;-36
2021/08/17 03:07:34;;;;;;;6.75;2.80;;;;;;;;;;5018865;28;20107;-36
2021/08/17 03:10:00;;;;;;;5.65;3.00;;;;;;;;;;5003748;28;20065;-40
2021/08/17 03:12:25;;;;;;;9.80;2.42;;;;;;;;;;4996204;28;20145;-40
2021/08/17 03:14:50;;;;;;;6.43;2.58;;;;;;;;;;5003433;28;20026;-39
2021/08/17 03:17:16;;;;;;;10.85;2.72;;;;;;;;;;5003263;28;20444;-41
2021/08/17 03:19:41;;;;;;;6.13;2.40;;;;;;;;;;5004212;28;20104;-38
2021/08/17 03:22:08;;;;;;;6.43;2.90;;;;;;;;;;5003636;28;20535;-41
2021/08/17 03:24:33;;;;;;;5.47;2.17;;;;;;;;;;5003594;28;20642;-37
2021/08/17 03:26:59;;;;;;;7.32;2.53;;;;;;;;;;5005105;28;20541;-40
2021/08/17 03:29:24;;;;;;;5.50;2.33;;;;;;;;;;5004967;28;20022;-38
2021/08/17 03:31:49;;;;;;;5.63;2.95;;;;;;;;;;5003795;28;20412;-38
2021/08/17 03:34:14;;;;;;;6.22;2.80;;;;;;;;;;5004508;28;20105;-41
2021/08/17 03:36:40;;;;;;;7.10;2.53;;;;;;;;;;5004229;28;20505;-37
2021/08/17 03:39:05;;;;;;;5.90;2.85;;;;;;;;;;5007985;28;20034;-35
2021/08/17 03:41:31;;;;;;;5.43;2.58;;;;;;;;;;5023801;28;20033;-36
2021/08/17 03:43:56;;;;;;;6.88;2.70;;;;;;;;;;5007673;28;20409;-37
2021/08/17 03:46:22;;;;;;;6.03;2.45;;;;;;;;;;5009659;28;20045;-39
2021/08/17 03:48:47;;;;;;;6.03;2.40;;;;;;;;;;5006934;28;20053;-36
2021/08/17 03:51:12;;;;;;;5.18;2.47;;;;;;;;;;5009714;28;20125;-37
2021/08/17 03:53:38;;;;;;;5.30;2.50;;;;;;;;;;5008690;28;20173;-40
2021/08/17 03:56:03;;;;;;;6.28;2.80;;;;;;;;;;5007650;28;20030;-40
2021/08/17 03:58:28;;;;;;;6.30;2.63;;;;;;;;;;5008195;28;20048;-37
2021/08/17 04:00:54;;;;;;;5.53;2.40;;;;;;;;;;5006701;28;20493;-37
2021/08/17 04:03:19;;;;;;;6.05;3.17;;;;;;;;;;5006302;28;20500;-37
2021/08/17 04:05:45;;;;;;;4.80;2.60;;;;;;;;;;5008092;28;20030;-38
2021/08/17 04:08:10;;;;;;;5.93;2.47;;;;;;;;;;5007586;28;20047;-36
2021/08/17 04:10:35;;;;;;;5.13;2.60;;;;;;;;;;5007667;28;20810;-41
2021/08/17 04:13:01;;;;;;;4.70;2.25;;;;;;;;;;5009755;28;20493;-42
2021/08/17 04:15:26;;;;;;;4.15;2.03;;;;;;;;;;5013462;28;20108;-39
2021/08/17 04:17:52;;;;;;;5.65;1.88;;;;;;;;;;5005618;28;20026;-36
2021/08/17 04:20:17;;;;;;;6.40;2.38;;;;;;;;;;5009670;28;20033;-40
2021/08/17 04:22:43;;;;;;;5.78;2.15;;;;;;;;;;5005175;28;20037;-38
2021/08/17 04:25:09;;;;;;;6.10;2.75;;;;;;;;;;5005596;28;20068;-38
2021/08/17 04:27:35;;;;;;;6.45;2.70;;;;;;;;;;5005021;28;20029;-37
2021/08/17 04:30:01;;;;;;;5.88;2.92;;;;;;;;;;5005803;28;20040;-38
2021/08/17 04:32:26;;;;;;;5.15;2.90;;;;;;;;;;5007998;28;20033;-40
2021/08/17 04:34:51;;;;;;;7.40;2.90;;;;;;;;;;5004544;28;20029;-35
2021/08/17 04:37:17;;;;;;;5.78;2.60;;;;;;;;;;5006939;28;20603;-37
2021/08/17 04:39:42;;;;;;;6.10;2.38;;;;;;;;;;5007239;28;20042;-37
2021/08/17 04:42:07;;;;;;;5.82;2.70;;;;;;;;;;5007203;28;20034;-39
2021/08/17 04:44:34;;;;;;;5.55;2.30;;;;;;;;;;5013620;28;20052;-41
2021/08/17 04:47:00;;;;;;;6.93;2.20;;;;;;;;;;5007507;28;20030;-38
2021/08/17 04:49:25;;;;;;;6.85;2.78;;;;;;;;;;5009707;28;20072;-40
2021/08/17 04:51:50;;;;;;;5.63;2.53;;;;;;;;;;5011318;28;20207;-38
2021/08/17 04:54:16;;;;;;;6.65;2.40;;;;;;;;;;5004891;28;20040;-39
2021/08/17 04:56:41;;;;;;;5.90;2.05;;;;;;;;;;5005097;28;20209;-37
2021/08/17 04:59:06;;;;;;;8.90;2.55;;;;;;;;;;5004901;28;20528;-38
2021/08/17 05:01:32;;;;;;;5.63;2.30;;;;;;;;;;5004698;28;20401;-41
2021/08/17 05:03:58;;;;;;;5.95;2.72;;;;;;;;;;5004772;28;20034;-38
2021/08/17 05:06:23;;;;;;;6.22;2.45;;;;;;;;;;5005181;28;20069;-38
2021/08/17 05:08:49;;;;;;;6.78;2.40;;;;;;;;;;5012225;28;20499;-40
2021/08/17 05:11:15;;;;;;;5.30;1.75;;;;;;;;;;5010076;28;20030;-40
2021/08/17 05:13:40;;;;;;;8.15;2.58;;;;;;;;;;5012619;28;20029;-43
2021/08/17 05:16:05;;;;;;;5.13;2.10;;;;;;;;;;5010616;28;20026;-39
2021/08/17 05:18:32;;;;;;;4.25;2.20;;;;;;;;;;5004337;28;20404;-42
2021/08/17 05:20:59;;;;;;;5.28;2.10;;;;;;;;;;5004033;28;20033;-41
2021/08/17 05:23:25;;;;;;;4.75;2.78;;;;;;;;;;5004809;28;20153;-37
2021/08/17 05:25:50;;;;;;;4.63;2.00;;;;;;;;;;5005709;28;20137;-36
2021/08/17 05:28:16;;;;;;;4.57;2.50;;;;;;;;;;5012381;28;20113;-39
2021/08/17 05:30:41;;;;;;;6.43;2.15;;;;;;;;;;5005824;28;20521;-39
2021/08/17 05:33:06;;;;;;;5.55;2.17;;;;;;;;;;5009946;28;20038;-38
2021/08/17 05:35:32;;;;;;;4.93;2.15;;;;;;;;;;5011962;28;20022;-49
2021/08/17 05:37:57;;;;;;;4.93;2.25;;;;;;;;;;5007483;28;20774;-37
2021/08/17 05:40:22;;;;;;;4.45;2.17;;;;;;;;;;5004488;28;20041;-37
2021/08/17 05:42:48;;;;;;;4.90;2.00;;;;;;;;;;5003800;28;21011;-38
2021/08/17 05:45:13;;;;;;;5.03;2.63;;;;;;;;;;5005000;28;20041;-38
2021/08/17 05:47:45;;;;;;;4.68;2.40;;;;;;;;;;5003726;28;20072;-41
2021/08/17 05:50:14;;;;;;;5.72;2.30;;;;;;;;;;5003903;28;20026;-36
2021/08/17 05:52:39;;;;;;;9.00;3.35;;;;;;;;;;5005936;28;20541;-37
2021/08/17 05:55:06;;;;;;;6.35;2.65;;;;;;;;;;5005904;28;20029;-37
2021/08/17 05:57:32;;;;;;;4.32;2.13;;;;;;;;;;5006035;28;20033;-38
2021/08/17 05:59:57;;;;;;;6.05;2.10;;;;;;;;;;5005965;28;20533;-36
2021/08/17 06:02:23;;;;;;;5.93;2.30;;;;;;;;;;5005838;28;20024;-36
2021/08/17 06:04:48;;;;;;;5.22;2.00;;;;;;;;;;5004094;28;20026;-36
2021/08/17 06:07:17;;;;;;;5.15;2.22;;;;;;;;;;5006450;28;20060;-41
2021/08/17 06:09:42;;;;;;;5.97;2.20;;;;;;;;;;5003938;28;20072;-36
2021/08/17 06:12:08;;;;;;;5.50;2.58;;;;;;;;;;5003473;28;20058;-37
2021/08/17 06:14:33;;;;;;;5.70;2.38;;;;;;;;;;5002877;28;20029;-36
2021/08/17 06:16:58;;;;;;;5.40;2.67;;;;;;;;;;5012272;28;20039;-37
2021/08/17 06:19:24;;;;;;;5.32;2.40;;;;;;;;;;5021452;28;20068;-38
2021/08/17 06:21:49;;;;;;;4.55;2.08;;;;;;;;;;5010287;28;20033;-42
2021/08/17 06:24:15;;;;;;;6.60;2.30;;;;;;;;;;5005024;28;20022;-38
2021/08/17 06:26:40;;;;;;;5.13;2.40;;;;;;;;;;5008745;28;20029;-42
2021/08/17 06:29:06;;;;;;;4.43;2.20;;;;;;;;;;5008955;28;20053;-39
2021/08/17 06:31:31;;;;;;;6.05;2.28;;;;;;;;;;5005929;28;20038;-38
2021/08/17 06:33:59;;;;;;;5.43;2.75;;;;;;;;;;5010666;28;20106;-39
2021/08/17 06:36:25;;;;;;;6.50;2.10;;;;;;;;;;5007105;28;20029;-37
2021/08/17 06:38:51;;;;;;;5.22;2.28;;;;;;;;;;5010677;28;20039;-36
2021/08/17 06:41:16;;;;;;;4.38;2.00;;;;;;;;;;5019157;28;20499;-40
2021/08/17 06:43:42;;;;;;;5.22;2.50;;;;;;;;;;5005777;28;20265;-37
2021/08/17 06:46:08;;;;;;;5.78;2.60;;;;;;;;;;5003132;28;20554;-40
2021/08/17 06:48:34;;;;;;;4.82;2.40;;;;;;;;;;5015463;28;20025;-41
2021/08/17 06:50:59;;;;;;;5.13;2.80;;;;;;;;;;5002613;28;20479;-37
2021/08/17 06:53:24;;;;;;;4.50;2.28;;;;;;;;;;5002648;28;20512;-36
2021/08/17 06:55:50;;;;;;;4.82;2.17;;;;;;;;;;5011018;28;20434;-38
2021/08/17 06:58:15;;;;;;;4.30;2.35;;;;;;;;;;5019275;28;20516;-37
2021/08/17 07:00:46;;;;;;;5.40;2.20;;;;;;;;;;5022100;28;20680;-38
2021/08/17 07:03:12;;;;;;;6.30;2.75;;;;;;;;;;5021497;28;20861;-38
2021/08/17 07:05:43;;;;;;;5.80;2.50;;;;;;;;;;5016377;28;20033;-38
2021/08/17 07:08:10;;;;;;;5.22;2.38;;;;;;;;;;5007900;28;20605;-36
2021/08/17 07:10:36;;;;;;;4.07;2.17;;;;;;;;;;5012543;28;20030;-37
2021/08/17 07:13:03;;;;;;;5.75;2.75;;;;;;;;;;5009261;28;20106;-37
2021/08/17 07:15:28;;;;;;;4.28;2.33;;;;;;;;;;5002476;28;20040;-39
2021/08/17 07:17:53;;;;;;;5.70;2.95;;;;;;;;;;5004698;28;20038;-36
2021/08/17 07:20:20;;;;;;;5.45;2.35;;;;;;;;;;5014878;28;20056;-37
2021/08/17 07:22:45;;;;;;;6.07;2.78;;;;;;;;;;5006920;28;20025;-40
2021/08/17 07:25:11;;;;;;;4.80;2.45;;;;;;;;;;5015005;28;20790;-36
2021/08/17 07:27:37;;;;;;;4.55;2.40;;;;;;;;;;5003633;28;20489;-38
2021/08/17 07:30:06;;;;;;;6.05;2.15;;;;;;;;;;5001663;28;20626;-39
2021/08/17 07:32:31;;;;;;;6.40;2.65;;;;;;;;;;5002293;28;20028;-41
2021/08/17 07:34:57;;;;;;;5.20;2.70;;;;;;;;;;5001910;28;20029;-40
2021/08/17 07:37:22;;;;;;;8.55;2.83;;;;;;;;;;5002843;28;20110;-39
2021/08/17 07:39:47;;;;;;;5.78;2.47;;;;;;;;;;5003091;28;20552;-41
2021/08/17 07:42:12;;;;;;;4.85;2.60;;;;;;;;;;4996531;28;20693;-39
2021/08/17 07:44:38;;;;;;;5.47;2.50;;;;;;;;;;5002903;28;20041;-39
2021/08/17 07:47:03;;;;;;;5.68;2.45;;;;;;;;;;5000284;28;20037;-40
2021/08/17 07:49:28;;;;;;;7.15;3.25;;;;;;;;;;5002438;28;20025;-41
2021/08/17 07:51:54;;;;;;;5.45;2.90;;;;;;;;;;5002787;28;20030;-39
2021/08/17 07:54:20;;;;;;;5.90;2.92;;;;;;;;;;4999785;28;20632;-39
2021/08/17 07:56:46;;;;;;;8.65;3.28;;;;;;;;;;5016700;28;20115;-38
2021/08/17 07:59:12;;;;;;;5.53;3.47;;;;;;;;;;5008526;28;20898;-38
2021/08/17 08:01:37;;;;;;;6.30;3.30;;;;;;;;;;5015292;28;20101;-38
2021/08/17 08:04:03;;;;;;;9.35;3.97;;;;;;;;;;5001966;28;20022;-42
2021/08/17 08:06:28;;;;;;;6.82;3.70;;;;;;;;;;5012461;28;20439;-39
2021/08/17 08:08:53;;;;;;;7.53;4.07;;;;;;;;;;5009296;28;20026;-36
2021/08/17 08:11:19;;;;;;;7.18;3.97;;;;;;;;;;5007466;28;20022;-37
2021/08/17 08:13:44;;;;;;;6.55;3.45;;;;;;;;;;5019017;28;20026;-38
2021/08/17 08:16:09;;;;;;;7.50;3.80;;;;;;;;;;5016375;28;20057;-39
2021/08/17 08:18:35;;;;;;;6.80;3.83;;;;;;;;;;5007452;28;20029;-40
2021/08/17 08:21:00;;;;;;;7.03;3.75;;;;;;;;;;5009108;28;20087;-40
2021/08/17 08:23:25;;;;;;;8.75;3.60;;;;;;;;;;5014699;28;20539;-40
2021/08/17 08:25:51;;;;;;;8.27;4.05;;;;;;;;;;5004707;28;20109;-39
2021/08/17 08:28:16;;;;;;;8.27;3.65;;;;;;;;;;5007514;28;20049;-39
2021/08/17 08:30:41;;;;;;;8.23;4.18;;;;;;;;;;5006523;28;20385;-41
2021/08/17 08:33:07;;;;;;;9.10;4.07;;;;;;;;;;5008000;28;20084;-36
2021/08/17 08:35:32;;;;;;;7.75;3.85;;;;;;;;;;5005595;28;20530;-40
2021/08/17 08:37:58;;;;;;;7.85;3.65;;;;;;;;;;5007733;28;20034;-38
2021/08/17 08:40:27;;;;;;;8.73;3.80;;;;;;;;;;5007677;28;20508;-37
2021/08/17 08:42:53;;;;;;;7.28;3.70;;;;;;;;;;5006312;28;20026;-41
2021/08/17 08:45:19;;;;;;;6.65;3.67;;;;;;;;;;5008177;28;20038;-38
2021/08/17 08:47:44;;;;;;;7.50;3.65;;;;;;;;;;5007134;28;20108;-39
2021/08/17 08:50:10;;;;;;;7.38;3.95;;;;;;;;;;5007273;28;20638;-37
2021/08/17 08:52:36;;;;;;;6.60;3.78;;;;;;;;;;5007272;28;20026;-43
2021/08/17 08:55:03;;;;;;;7.60;4.20;;;;;;;;;;5006655;28;20022;-38
2021/08/17 08:57:29;;;;;;;6.10;3.30;;;;;;;;;;5005454;28;20402;-39
2021/08/17 08:59:54;;;;;;;6.72;3.30;;;;;;;;;;5006826;28;20026;-37
2021/08/17 09:02:26;;;;;;;6.35;3.40;;;;;;;;;;5006996;28;20191;-40
2021/08/17 09:04:52;;;;;;;;;;;;;;;;;;5007070;28;20095;-36
2021/08/17 09:07:39;;;;;;;6.55;3.47;;;;;;;;;;5006773;28;20424;-38
2021/08/17 09:10:22;;;;;;;6.65;3.53;;;;;;;;;;5005970;28;20504;-38
2021/08/17 09:12:56;;;;;;;7.97;3.95;;;;;;;;;;4987201;28;20110;-36
2021/08/17 09:15:30;;;;;;;7.93;3.72;;;;;;;;;;4994648;28;20022;-37
2021/08/17 09:18:01;;;;;;;7.47;4.05;;;;;;;;;;5006514;28;20029;-38
2021/08/17 09:20:42;;;;;;;7.22;3.92;;;;;;;;;;5015388;28;20079;-39
2021/08/17 09:23:28;;;;;;;8.07;4.47;;;;;;;;;;5015016;28;20463;-38
2021/08/17 09:25:57;;;;;;;8.05;3.30;;;;;;;;;;5008603;28;20033;-38
2021/08/17 09:28:34;;;;;;;6.53;3.65;;;;;;;;;;5008907;28;20033;-38
2021/08/17 09:31:02;;;;;;;7.53;3.30;;;;;;;;;;5011461;28;20060;-42
2021/08/17 09:33:54;;;;;;;7.45;3.85;;;;;;;;;;5004629;28;20030;-39
2021/08/17 09:36:20;;;;;;;;;;;;;;;;;;5005640;28;20106;-36
2021/08/17 09:38:45;;;;;;;7.10;3.25;;;;;;;;;;5004247;28;20002;-37
2021/08/17 09:41:23;;;;;;;6.43;3.20;;;;;;;;;;5006118;28;20076;-39
2021/08/17 09:43:57;;;;;;;6.15;3.53;;;;;;;;;;5005551;28;20104;-37
2021/08/17 09:46:31;;;;;;;6.65;3.42;;;;;;;;;;5006881;28;20329;-35
2021/08/17 09:48:58;;;;;;;6.40;3.17;;;;;;;;;;5006297;28;20026;-37
2021/08/17 09:51:30;;;;;;;7.28;3.47;;;;;;;;;;5005213;28;20022;-38
2021/08/17 09:54:15;;;;;;;5.78;3.17;;;;;;;;;;5006422;28;20103;-36
2021/08/17 09:56:42;;;;;;;6.10;3.42;;;;;;;;;;5005028;28;20029;-40
2021/08/17 09:59:07;;;;;;;6.88;3.00;;;;;;;;;;5006542;28;20025;-38
2021/08/17 10:01:33;;;;;;;5.95;3.03;;;;;;;;;;5005234;28;20032;-41
2021/08/17 10:03:59;;;;;;;6.95;3.15;;;;;;;;;;5005878;28;20044;-35
2021/08/17 10:06:26;;;;;;;7.22;3.47;;;;;;;;;;5004975;28;20037;-37
2021/08/17 10:08:52;;;;;;;6.55;3.25;;;;;;;;;;5005632;28;20632;-41
2021/08/17 10:11:18;;;;;;;5.40;2.97;;;;;;;;;;5004893;28;20040;-37
2021/08/17 10:13:44;;;;;;;6.57;3.53;;;;;;;;;;5006165;28;20040;-39
2021/08/17 10:16:10;;;;;;;6.38;3.30;;;;;;;;;;5006810;28;20025;-38
2021/08/17 10:18:36;;;;;;;6.18;2.90;;;;;;;;;;5005569;28;20041;-37
2021/08/17 10:21:03;;;;;;;7.35;3.45;;;;;;;;;;5018610;28;20060;-38
2021/08/17 10:23:28;;;;;;;6.88;3.40;;;;;;;;;;5009340;28;20030;-40
2021/08/17 10:25:59;;;;;;;6.10;3.30;;;;;;;;;;5005399;28;20041;-39
2021/08/17 10:28:30;;;;;;;5.17;3.10;;;;;;;;;;5004375;28;20030;-37
2021/08/17 10:30:56;;;;;;;;;;;;;;;;;;5006362;28;20022;-37
2021/08/17 10:34:05;;;;;;;5.20;2.67;;;;;;;;;;5004722;28;19993;-38
2021/08/17 10:36:34;;;;;;;7.30;3.10;;;;;;;;;;4985732;28;20501;-40
2021/08/17 10:39:06;;;;;;;6.22;2.80;;;;;;;;;;5005342;28;20088;-37
2021/08/17 10:41:35;;;;;;;6.57;3.13;;;;;;;;;;5004505;28;20060;-37
2021/08/17 10:44:01;;;;;;;5.70;3.05;;;;;;;;;;5005254;28;20033;-36
2021/08/17 10:46:44;;;;;;;6.07;3.05;;;;;;;;;;5005832;28;20269;-36
2021/08/17 10:49:44;;;;;;;5.63;3.47;;;;;;;;;;5004237;28;20040;-41
2021/08/17 10:52:25;;;;;;;6.45;2.92;;;;;;;;;;5013823;28;20080;-41
2021/08/17 10:55:23;;;;;;;4.72;2.00;;;;;;;;;;5015455;28;20132;-40
2021/08/17 10:57:57;;;;;;;5.95;2.88;;;;;;;;;;5003275;28;20041;-38
2021/08/17 11:00:55;;;;;;;5.38;2.60;;;;;;;;;;5010142;28;20030;-40
2021/08/17 11:03:48;;;;;;;5.22;2.60;;;;;;;;;;5010140;28;20514;-38
2021/08/17 11:06:41;;;;;;;7.75;2.75;;;;;;;;;;5009308;28;20492;-41
2021/08/17 11:09:07;;;;;;;6.22;2.88;;;;;;;;;;5015207;28;20462;-36
2021/08/17 11:11:33;;;;;;;4.70;2.67;;;;;;;;;;5002233;28;20132;-36
2021/08/17 11:14:04;;;;;;;7.72;2.63;;;;;;;;;;5005897;28;20029;-38
2021/08/17 11:16:29;;;;;;;6.85;3.20;;;;;;;;;;5002662;28;20018;-38
2021/08/17 11:19:00;;;;;;;4.25;2.33;;;;;;;;;;5019600;28;20120;-38
2021/08/17 11:21:32;;;;;;;5.78;2.67;;;;;;;;;;5011166;28;20386;-41
2021/08/17 11:24:30;;;;;;;5.10;2.60;;;;;;;;;;5005162;28;20030;-37
2021/08/17 11:27:14;;;;;;;5.68;2.55;;;;;;;;;;5004588;28;20101;-42
2021/08/17 11:29:45;;;;;;;4.97;2.58;;;;;;;;;;5017956;28;20034;-39
2021/08/17 11:32:28;;;;;;;5.65;2.58;;;;;;;;;;5014268;28;20026;-40
2021/08/17 11:34:54;;;;;;;5.40;2.42;;;;;;;;;;4990958;28;20033;-39
2021/08/17 11:37:20;;;;;;;5.68;2.67;;;;;;;;;;5003395;28;20034;-36
2021/08/17 11:39:56;;;;;;;4.38;2.35;;;;;;;;;;5022632;28;20021;-36
2021/08/17 11:42:22;;;;;;;4.43;2.28;;;;;;;;;;5008288;28;20029;-36
2021/08/17 11:44:56;;;;;;;5.78;2.55;;;;;;;;;;5011165;28;20030;-39
2021/08/17 11:47:22;;;;;;;5.47;2.70;;;;;;;;;;5008976;28;20034;-37
2021/08/17 11:49:50;;;;;;;4.65;2.33;;;;;;;;;;5002815;28;20104;-38
2021/08/17 11:52:20;;;;;;;6.15;3.03;;;;;;;;;;5015048;28;20076;-37
2021/08/17 11:54:47;;;;;;;5.73;2.57;;;;;;;;;;5003426;28;20025;-39
2021/08/17 11:57:19;;;;;;;5.13;2.47;;;;;;;;;;5001337;28;20168;-39
2021/08/17 11:59:46;;;;;;;4.72;2.38;;;;;;;;;;5016717;28;20021;-38
2021/08/17 12:02:19;;;;;;;6.45;2.95;;;;;;;;;;5020931;28;20034;-39
2021/08/17 12:04:52;;;;;;;5.07;2.42;;;;;;;;;;5018886;28;20029;-40
2021/08/17 12:07:18;;;;;;;4.85;2.38;;;;;;;;;;4999633;28;20740;-40
2021/08/17 12:09:45;;;;;;;9.45;3.20;;;;;;;;;;5023615;28;20028;-38
2021/08/17 12:12:13;;;;;;;5.13;2.80;;;;;;;;;;5011308;28;20049;-38
2021/08/17 12:14:40;;;;;;;5.88;2.90;;;;;;;;;;5011968;28;20025;-38
2021/08/17 12:17:07;;;;;;;5.60;2.78;;;;;;;;;;5005757;28;20026;-41
2021/08/17 12:19:34;;;;;;;7.10;3.05;;;;;;;;;;5006794;28;20029;-40
2021/08/17 12:22:01;;;;;;;5.93;2.97;;;;;;;;;;5017436;28;20038;-40
2021/08/17 12:24:30;;;;;;;5.28;2.67;;;;;;;;;;5005596;28;20033;-38
2021/08/17 12:27:01;;;;;;;6.25;2.83;;;;;;;;;;5013645;28;20470;-42
2021/08/17 12:29:40;;;;;;;5.63;2.88;;;;;;;;;;5011834;28;20099;-39
2021/08/17 12:32:17;;;;;;;5.68;2.78;;;;;;;;;;5014921;28;20403;-39
2021/08/17 12:34:45;;;;;;;5.30;3.08;;;;;;;;;;5015550;28;20040;-41
2021/08/17 12:37:33;;;;;;;6.57;3.22;;;;;;;;;;5018029;28;20029;-43
2021/08/17 12:40:00;;;;;;;5.50;3.17;;;;;;;;;;5014324;28;20035;-42
2021/08/17 12:42:27;;;;;;;6.32;3.10;;;;;;;;;;5012306;28;20057;-40
2021/08/17 12:44:52;;;;;;;5.15;2.60;;;;;;;;;;5019017;28;20468;-40
2021/08/17 12:47:23;;;;;;;7.80;3.13;;;;;;;;;;5018803;28;20039;-38
2021/08/17 12:50:04;;;;;;;6.57;3.00;;;;;;;;;;5005649;28;20108;-38
2021/08/17 12:52:34;;;;;;;5.68;2.63;;;;;;;;;;5011290;28;20037;-35
2021/08/17 12:55:08;;;;;;;6.03;2.88;;;;;;;;;;5005100;28;20559;-37
2021/08/17 12:57:40;;;;;;;6.15;2.90;;;;;;;;;;5003876;28;20181;-41
2021/08/17 13:00:11;;;;;;;5.95;3.05;;;;;;;;;;5014491;28;20031;-39
2021/08/17 13:02:37;;;;;;;5.63;3.22;;;;;;;;;;5016561;28;20500;-38
2021/08/17 13:05:07;;;;;;;5.75;3.20;;;;;;;;;;5010078;28;20099;-38
2021/08/17 13:07:33;;;;;;;6.15;3.35;;;;;;;;;;5003616;28;20393;-39
2021/08/17 13:09:59;;;;;;;6.40;2.97;;;;;;;;;;5006562;28;20409;-38
2021/08/17 13:12:29;;;;;;;5.90;3.35;;;;;;;;;;5005885;28;20026;-38
2021/08/17 13:14:55;;;;;;;6.57;3.25;;;;;;;;;;5007186;28;20123;-40
2021/08/17 13:17:21;;;;;;;5.60;3.10;;;;;;;;;;5004320;28;20026;-43
2021/08/17 13:19:47;;;;;;;6.22;3.22;;;;;;;;;;5016446;28;20492;-40
2021/08/17 13:22:12;;;;;;;5.30;2.88;;;;;;;;;;5023881;28;20036;-42
2021/08/17 13:24:37;;;;;;;7.05;3.13;;;;;;;;;;5006609;28;20049;-39
2021/08/17 13:27:03;;;;;;;7.18;3.28;;;;;;;;;;5004015;28;20026;-40
2021/08/17 13:29:29;;;;;;;6.22;3.58;;;;;;;;;;5004672;28;20095;-38
2021/08/17 13:31:55;;;;;;;6.05;3.47;;;;;;;;;;5004512;28;20064;-38
2021/08/17 13:34:22;;;;;;;6.47;3.45;;;;;;;;;;5017751;28;20415;-41
2021/08/17 13:36:48;;;;;;;7.10;3.72;;;;;;;;;;5004498;28;20033;-39
2021/08/17 13:39:14;;;;;;;8.55;3.42;;;;;;;;;;5016938;28;20026;-38
2021/08/17 13:41:39;;;;;;;5.65;2.88;;;;;;;;;;5004349;28;20416;-39
2021/08/17 13:44:04;;;;;;;6.88;3.92;;;;;;;;;;5004604;28;20034;-40
2021/08/17 13:46:30;;;;;;;6.93;3.70;;;;;;;;;;5004798;28;20029;-38
2021/08/17 13:48:55;;;;;;;8.18;3.70;;;;;;;;;;5017477;28;20041;-37
2021/08/17 13:51:21;;;;;;;5.95;3.47;;;;;;;;;;5003699;28;20824;-38
2021/08/17 13:53:49;;;;;;;6.75;3.40;;;;;;;;;;5004081;28;20024;-41
2021/08/17 13:56:15;;;;;;;6.43;3.50;;;;;;;;;;5011893;28;20052;-40
2021/08/17 13:58:40;;;;;;;6.65;3.58;;;;;;;;;;5000924;28;20108;-38
2021/08/17 14:01:05;;;;;;;8.05;3.25;;;;;;;;;;5021051;28;20029;-39
2021/08/17 14:03:31;;;;;;;7.18;3.42;;;;;;;;;;5004802;28;20041;-38
2021/08/17 14:05:56;;;;;;;6.75;3.40;;;;;;;;;;5006162;28;20077;-37
2021/08/17 14:08:21;;;;;;;7.97;3.85;;;;;;;;;;5006022;28;20646;-38
2021/08/17 14:10:47;;;;;;;7.18;3.20;;;;;;;;;;5005280;28;20097;-38
2021/08/17 14:13:12;;;;;;;6.65;3.80;;;;;;;;;;5006142;28;20489;-39
2021/08/17 14:15:38;;;;;;;8.02;3.47;;;;;;;;;;5005730;28;20029;-36
2021/08/17 14:18:03;;;;;;;10.38;4.00;;;;;;;;;;5004671;28;20025;-38
2021/08/17 14:20:28;;;;;;;6.65;3.53;;;;;;;;;;5014649;28;20393;-38
2021/08/17 14:22:54;;;;;;;6.85;3.75;;;;;;;;;;5011736;28;20030;-39
2021/08/17 14:25:19;;;;;;;6.35;3.13;;;;;;;;;;5005870;28;20030;-39
2021/08/17 14:27:44;;;;;;;7.03;3.55;;;;;;;;;;5005091;28;20022;-41
2021/08/17 14:30:10;;;;;;;5.60;2.97;;;;;;;;;;5005873;28;20036;-42
2021/08/17 14:32:35;;;;;;;7.93;3.22;;;;;;;;;;5005320;28;20028;-40
2021/08/17 14:35:01;;;;;;;6.15;3.30;;;;;;;;;;5004893;28;20734;-39
2021/08/17 14:37:26;;;;;;;8.25;3.55;;;;;;;;;;5005611;28;20420;-37
2021/08/17 14:39:51;;;;;;;6.07;3.03;;;;;;;;;;5005525;28;20060;-39
2021/08/17 14:42:17;;;;;;;6.85;3.65;;;;;;;;;;5005124;28;20540;-42
2021/08/17 14:44:42;;;;;;;6.28;3.55;;;;;;;;;;5004848;28;20029;-42